Wetterdaten: Jahr 2020
Datum Temp Feuchte Luftdruck Regen Wind Richtung Sonnenschein UV Solar Windben
01.01.2020 1,4 C 82 % 1031,5 hPa 0,2 l/m 9,5 km/h S 4,75 h 0,6 UV-I 119 W/m 13,3 km/h
02.01.2020 -0,4 C 93 % 1024,9 hPa 0,0 l/m 2,8 km/h S 3,25 h 0,5 UV-I 96 W/m 4,8 km/h
03.01.2020 5,4 C 94 % 1019,0 hPa 11,8 l/m 12,3 km/h S 0,00 h 0,0 UV-I 22 W/m 19,7 km/h
04.01.2020 3,2 C 97 % 1027,1 hPa 6,6 l/m 7,0 km/h N 0,00 h 0,0 UV-I 12 W/m 19,7 km/h
05.01.2020 3,5 C 94 % 1032,9 hPa 0,4 l/m 0,0 km/h S-SW 0,00 h 0,0 UV-I 22 W/m 0,0 km/h
06.01.2020 1,8 C 90 % 1023,7 hPa 0,0 l/m 7,5 km/h S 0,17 h 0,0 UV-I 43 W/m 11,7 km/h
07.01.2020 4,5 C 95 % 1024,8 hPa 1,6 l/m 9,9 km/h N 0,17 h 0,5 UV-I 42 W/m 16,9 km/h
08.01.2020 8,1 C 97 % 1022,5 hPa 6,8 l/m 4,4 km/h S 0,00 h 0,0 UV-I 20 W/m 8,1 km/h
09.01.2020 9,3 C 96 % 1011,8 hPa 5,0 l/m 5,5 km/h S 0,00 h 0,0 UV-I 30 W/m 8,9 km/h
10.01.2020 5,7 C 94 % 1019,8 hPa 5,6 l/m 9,5 km/h S-SW 0,00 h 0,0 UV-I 31 W/m 22,1 km/h
11.01.2020 2,4 C 92 % 1028,7 hPa 0,0 l/m 7,5 km/h S 1,08 h 0,6 UV-I 77 W/m 11,7 km/h
12.01.2020 5,2 C 90 % 1020,7 hPa 0,8 l/m 14,9 km/h S 0,17 h 0,6 UV-I 50 W/m 25,4 km/h
13.01.2020 5,5 C 90 % 1015,1 hPa 0,2 l/m 17,6 km/h S 0,08 h 0,5 UV-I 62 W/m 25,4 km/h
14.01.2020 8,8 C 83 % 1008,0 hPa 0,6 l/m 21,0 km/h S 0,00 h 0,0 UV-I 26 W/m 29,8 km/h
15.01.2020 9,9 C 79 % 1014,2 hPa 2,0 l/m 18,5 km/h S 2,00 h 0,5 UV-I 92 W/m 31,0 km/h
16.01.2020 5,6 C 92 % 1024,6 hPa 0,0 l/m 7,1 km/h S-SO 5,25 h 0,6 UV-I 130 W/m 16,9 km/h
17.01.2020 6,9 C 87 % 1015,9 hPa 0,8 l/m 7,6 km/h S-SO 2,67 h 0,6 UV-I 106 W/m 14,1 km/h
18.01.2020 2,9 C 91 % 1024,1 hPa 1,4 l/m 4,6 km/h S-SW 0,00 h 0,5 UV-I 45 W/m 8,9 km/h
19.01.2020 2,0 C 97 % 1038,6 hPa 1,2 l/m 0,0 km/h NW 0,00 h 0,5 UV-I 36 W/m 0,0 km/h
20.01.2020 1,2 C 96 % 1045,8 hPa 0,2 l/m 0,0 km/h N 1,58 h 0,5 UV-I 81 W/m 0,0 km/h
21.01.2020 -1,3 C 90 % 1040,1 hPa 0,2 l/m 0,1 km/h N 5,33 h 0,7 UV-I 160 W/m 1,2 km/h
22.01.2020 0,9 C 97 % 1035,5 hPa 0,8 l/m 0,3 km/h N 0,00 h 0,5 UV-I 36 W/m 2,0 km/h
23.01.2020 0,0 C 94 % 1029,8 hPa 0,0 l/m 0,2 km/h S-SO 0,08 h 0,6 UV-I 70 W/m 1,6 km/h
24.01.2020 -1,3 C 96 % 1023,0 hPa 0,0 l/m 1,4 km/h S 0,33 h 0,6 UV-I 56 W/m 5,6 km/h
25.01.2020 -1,1 C 97 % 1021,4 hPa 0,0 l/m 0,0 km/h S 0,00 h 0,5 UV-I 44 W/m 0,0 km/h
26.01.2020 0,6 C 97 % 1016,4 hPa 0,6 l/m 8,4 km/h S 2,75 h 0,7 UV-I 109 W/m 11,7 km/h
27.01.2020 4,2 C 96 % 1004,6 hPa 4,2 l/m 13,5 km/h S 0,08 h 0,6 UV-I 49 W/m 18,9 km/h
28.01.2020 3,0 C 90 % 994,7 hPa 6,0 l/m 15,4 km/h S 0,33 h 0,5 UV-I 40 W/m 29,4 km/h
29.01.2020 3,0 C 92 % 1007,1 hPa 1,6 l/m 13,1 km/h N 0,17 h 0,6 UV-I 48 W/m 31,8 km/h
30.01.2020 7,2 C 90 % 1004,8 hPa 2,6 l/m 18,7 km/h S-SW 0,08 h 0,7 UV-I 81 W/m 29,4 km/h
31.01.2020 10,6 C 86 % 1007,0 hPa 1,4 l/m 14,5 km/h N 2,33 h 0,8 UV-I 101 W/m 25,8 km/h
01.02.2020 8,6 C 93 % 1003,3 hPa 14,8 l/m 13,3 km/h S-SW 0,00 h 0,5 UV-I 28 W/m 24,1 km/h
02.02.2020 7,4 C 91 % 1006,4 hPa 11,0 l/m 5,8 km/h N 0,00 h 0,5 UV-I 40 W/m 15,3 km/h
03.02.2020 7,4 C 90 % 1008,0 hPa 4,6 l/m 7,3 km/h N 0,08 h 0,6 UV-I 60 W/m 14,9 km/h
04.02.2020 2,8 C 95 % 1014,8 hPa 9,0 l/m 6,3 km/h N 0,17 h 0,5 UV-I 57 W/m 15,7 km/h
05.02.2020 2,2 C 88 % 1034,0 hPa 0,0 l/m 3,0 km/h N 4,58 h 0,8 UV-I 162 W/m 12,9 km/h
06.02.2020 3,2 C 91 % 1030,6 hPa 0,0 l/m 1,3 km/h N 0,00 h 0,6 UV-I 35 W/m 7,3 km/h
07.02.2020 2,7 C 86 % 1026,3 hPa 0,0 l/m 11,8 km/h S-SO 5,42 h 0,9 UV-I 178 W/m 16,1 km/h
08.02.2020 3,7 C 86 % 1020,6 hPa 0,0 l/m 12,5 km/h S-SO 1,50 h 0,6 UV-I 89 W/m 18,1 km/h
09.02.2020 9,1 C 80 % 999,9 hPa 0,2 l/m 32,4 km/h S 2,33 h 0,8 UV-I 113 W/m 51,1 km/h
10.02.2020 5,3 C 88 % 992,3 hPa 14,6 l/m 19,6 km/h S-SW 0,75 h 0,7 UV-I 63 W/m 37,0 km/h
11.02.2020 2,5 C 83 % 1002,7 hPa 1,0 l/m 17,9 km/h N 2,75 h 0,8 UV-I 146 W/m 37,0 km/h
12.02.2020 3,0 C 82 % 1012,5 hPa 1,2 l/m 7,2 km/h N 0,17 h 0,6 UV-I 72 W/m 21,0 km/h
13.02.2020 1,9 C 94 % 1003,3 hPa 6,2 l/m 10,5 km/h S 0,00 h 0,0 UV-I 30 W/m 18,9 km/h
14.02.2020 5,0 C 91 % 1020,1 hPa 1,2 l/m 3,1 km/h N 0,92 h 0,8 UV-I 102 W/m 11,2 km/h
15.02.2020 6,8 C 85 % 1015,8 hPa 0,0 l/m 20,3 km/h S 4,83 h 1,0 UV-I 186 W/m 29,4 km/h
16.02.2020 11,3 C 79 % 1003,7 hPa 7,8 l/m 25,3 km/h S 0,33 h 0,9 UV-I 77 W/m 42,2 km/h
17.02.2020 6,6 C 78 % 1012,4 hPa 4,8 l/m 14,9 km/h S-SW 1,33 h 0,9 UV-I 131 W/m 27,3 km/h
18.02.2020 4,9 C 85 % 1018,4 hPa 3,8 l/m 17,7 km/h S-SW 0,83 h 0,8 UV-I 104 W/m 27,8 km/h
19.02.2020 3,6 C 83 % 1017,3 hPa 8,0 l/m 13,0 km/h N 0,08 h 0,6 UV-I 80 W/m 27,3 km/h
20.02.2020 6,5 C 88 % 1011,3 hPa 5,6 l/m 21,2 km/h S 0,17 h 0,9 UV-I 96 W/m 32,2 km/h
21.02.2020 5,4 C 80 % 1023,1 hPa 2,4 l/m 20,5 km/h N 0,83 h 0,9 UV-I 125 W/m 38,2 km/h
22.02.2020 7,2 C 80 % 1017,7 hPa 3,2 l/m 18,8 km/h S-SW 1,33 h 0,7 UV-I 82 W/m 35,8 km/h
23.02.2020 6,5 C 91 % 1012,7 hPa 32,0 l/m 17,1 km/h N 0,00 h 0,0 UV-I 21 W/m 33,4 km/h
24.02.2020 6,0 C 92 % 1009,7 hPa 6,2 l/m 13,7 km/h N 0,00 h 0,6 UV-I 62 W/m 27,4 km/h
25.02.2020 4,3 C 86 % 995,8 hPa 3,8 l/m 14,6 km/h N 1,50 h 0,9 UV-I 130 W/m 25,8 km/h
26.02.2020 1,8 C 95 % 998,3 hPa 5,2 l/m 12,1 km/h N 0,08 h 0,5 UV-I 42 W/m 27,0 km/h
27.02.2020 1,6 C 92 % 1000,7 hPa 3,6 l/m 3,8 km/h N 0,00 h 0,8 UV-I 101 W/m 7,6 km/h
28.02.2020 2,2 C 90 % 1011,0 hPa 7,8 l/m 19,8 km/h N 0,67 h 1,0 UV-I 131 W/m 34,6 km/h
29.02.2020 6,3 C 84 % 993,7 hPa 6,8 l/m 18,8 km/h S-SO 2,83 h 0,9 UV-I 164 W/m 29,8 km/h
01.03.2020 6,1 C 78 % 992,7 hPa 5,6 l/m 17,6 km/h S 1,08 h 0,9 UV-I 136 W/m 29,0 km/h
02.03.2020 6,1 C 84 % 991,3 hPa 3,4 l/m 11,3 km/h S-SO 6,75 h 1,2 UV-I 246 W/m 18,5 km/h
03.03.2020 2,7 C 88 % 1003,0 hPa 4,6 l/m 4,7 km/h N 1,83 h 0,9 UV-I 126 W/m 10,9 km/h
04.03.2020 2,9 C 92 % 1009,3 hPa 1,2 l/m 1,1 km/h S 1,25 h 0,7 UV-I 83 W/m 3,6 km/h
05.03.2020 4,3 C 91 % 993,8 hPa 3,6 l/m 8,9 km/h SO 0,25 h 1,0 UV-I 122 W/m 24,1 km/h
06.03.2020 3,0 C 97 % 996,2 hPa 11,6 l/m 8,8 km/h N 0,00 h 0,5 UV-I 40 W/m 18,1 km/h
07.03.2020 3,0 C 88 % 1017,2 hPa 1,6 l/m 0,6 km/h N 1,25 h 1,0 UV-I 134 W/m 5,2 km/h
08.03.2020 7,7 C 85 % 1011,0 hPa 0,4 l/m 5,6 km/h S 3,33 h 1,3 UV-I 180 W/m 9,3 km/h
09.03.2020 6,2 C 86 % 1012,1 hPa 2,4 l/m 7,2 km/h N 1,42 h 1,0 UV-I 129 W/m 18,5 km/h
10.03.2020 8,5 C 96 % 1003,3 hPa 22,6 l/m 17,5 km/h S 0,00 h 0,6 UV-I 43 W/m 31,8 km/h
11.03.2020 9,6 C 91 % 1009,6 hPa 10,8 l/m 10,0 km/h N 0,67 h 1,1 UV-I 117 W/m 16,5 km/h
12.03.2020 6,1 C 79 % 1008,0 hPa 3,4 l/m 8,5 km/h S-SW 5,75 h 1,7 UV-I 269 W/m 20,1 km/h
13.03.2020 4,6 C 89 % 1016,0 hPa 4,2 l/m 9,4 km/h N 0,50 h 0,7 UV-I 71 W/m 20,9 km/h
14.03.2020 4,9 C 80 % 1020,9 hPa 0,0 l/m 2,7 km/h SO 5,83 h 1,4 UV-I 275 W/m 5,6 km/h
15.03.2020 7,4 C 71 % 1014,5 hPa 0,0 l/m 9,9 km/h S-SO 8,08 h 1,5 UV-I 285 W/m 16,9 km/h
16.03.2020 7,5 C 82 % 1020,5 hPa 0,0 l/m 0,9 km/h N 8,67 h 1,6 UV-I 304 W/m 4,8 km/h
17.03.2020 8,4 C 72 % 1028,3 hPa 0,8 l/m 3,3 km/h N 8,25 h 1,8 UV-I 324 W/m 10,5 km/h
18.03.2020 8,9 C 75 % 1025,3 hPa 0,0 l/m 2,9 km/h N 8,75 h 1,9 UV-I 321 W/m 9,2 km/h
19.03.2020 9,9 C 83 % 1024,2 hPa 0,0 l/m 0,0 km/h S-SW 2,58 h 1,7 UV-I 213 W/m 0,0 km/h
20.03.2020 5,3 C 88 % 1025,3 hPa 1,0 l/m 2,1 km/h N-NO 0,08 h 1,1 UV-I 77 W/m 13,3 km/h
21.03.2020 2,5 C 70 % 1028,7 hPa 0,0 l/m 7,5 km/h N-NO 5,92 h 1,6 UV-I 290 W/m 24,9 km/h
22.03.2020 2,1 C 57 % 1033,5 hPa 0,0 l/m 6,6 km/h SO 9,58 h 1,8 UV-I 360 W/m 18,9 km/h
23.03.2020 2,1 C 46 % 1034,8 hPa 0,0 l/m 12,5 km/h SO 9,58 h 1,8 UV-I 360 W/m 27,8 km/h
24.03.2020 2,7 C 47 % 1032,4 hPa 0,0 l/m 9,1 km/h SO 9,58 h 2,0 UV-I 360 W/m 16,9 km/h
25.03.2020 4,2 C 43 % 1027,1 hPa 0,0 l/m 2,1 km/h SO 9,67 h 2,1 UV-I 365 W/m 10,9 km/h
26.03.2020 5,8 C 52 % 1022,7 hPa 0,0 l/m 1,2 km/h O 9,58 h 1,8 UV-I 352 W/m 8,0 km/h
27.03.2020 9,4 C 57 % 1019,7 hPa 0,0 l/m 4,8 km/h NO 9,42 h 1,8 UV-I 337 W/m 14,9 km/h
28.03.2020 6,8 C 67 % 1020,9 hPa 0,0 l/m 7,8 km/h N 9,75 h 2,0 UV-I 356 W/m 16,5 km/h
29.03.2020 1,6 C 75 % 1027,3 hPa 0,4 l/m 7,4 km/h N 0,08 h 0,9 UV-I 100 W/m 16,1 km/h
30.03.2020 0,8 C 83 % 1027,3 hPa 0,4 l/m 2,2 km/h N 3,50 h 1,5 UV-I 204 W/m 5,2 km/h
31.03.2020 0,9 C 74 % 1028,6 hPa 0,0 l/m 0,4 km/h N-NO 6,25 h 1,9 UV-I 308 W/m 2,0 km/h
01.04.2020 2,0 C 72 % 1019,7 hPa 0,0 l/m 0,3 km/h N 10,25 h 2,2 UV-I 379 W/m 1,2 km/h
02.04.2020 5,5 C 71 % 1011,5 hPa 0,0 l/m 6,8 km/h N 4,08 h 2,0 UV-I 253 W/m 21,7 km/h
03.04.2020 6,5 C 76 % 1015,6 hPa 0,6 l/m 1,5 km/h N 2,25 h 1,7 UV-I 180 W/m 12,9 km/h
04.04.2020 4,9 C 69 % 1024,9 hPa 0,0 l/m 0,0 km/h SO 10,33 h 2,5 UV-I 385 W/m 0,0 km/h
05.04.2020 11,5 C 52 % 1022,5 hPa 0,0 l/m 9,3 km/h SO 10,33 h 2,6 UV-I 389 W/m 22,5 km/h
06.04.2020 13,5 C 48 % 1020,9 hPa 0,0 l/m 6,3 km/h S-SO 10,58 h 2,8 UV-I 394 W/m 10,0 km/h
07.04.2020 12,4 C 70 % 1029,6 hPa 0,0 l/m 0,3 km/h N-NO 6,00 h 2,2 UV-I 310 W/m 2,0 km/h
08.04.2020 14,3 C 59 % 1023,3 hPa 0,0 l/m 5,4 km/h S 10,92 h 2,5 UV-I 394 W/m 9,3 km/h
09.04.2020 12,3 C 68 % 1024,1 hPa 0,0 l/m 0,0 km/h N 10,75 h 2,7 UV-I 391 W/m 1,2 km/h
10.04.2020 8,4 C 60 % 1025,3 hPa 0,0 l/m 0,6 km/h N-NO 9,67 h 2,8 UV-I 377 W/m 2,4 km/h
11.04.2020 10,7 C 53 % 1023,1 hPa 0,0 l/m 3,2 km/h SO 11,08 h 2,9 UV-I 406 W/m 9,6 km/h
12.04.2020 12,5 C 57 % 1013,5 hPa 0,0 l/m 1,9 km/h S 9,83 h 2,6 UV-I 381 W/m 5,2 km/h
13.04.2020 6,5 C 58 % 1018,9 hPa 0,0 l/m 12,5 km/h N-NW 4,33 h 1,9 UV-I 278 W/m 24,1 km/h
14.04.2020 4,6 C 67 % 1024,7 hPa 0,0 l/m 1,1 km/h N-NW 2,50 h 1,8 UV-I 231 W/m 6,9 km/h
15.04.2020 7,4 C 68 % 1022,8 hPa 0,0 l/m 0,2 km/h N 9,42 h 3,0 UV-I 405 W/m 1,2 km/h
16.04.2020 13,5 C 56 % 1015,9 hPa 0,0 l/m 2,6 km/h N 10,75 h 2,6 UV-I 396 W/m 8,5 km/h
17.04.2020 12,1 C 64 % 1015,6 hPa 0,0 l/m 0,3 km/h N-NO 10,83 h 2,6 UV-I 400 W/m 2,8 km/h
18.04.2020 14,9 C 65 % 1014,4 hPa 2,4 l/m 0,9 km/h SO 7,33 h 2,7 UV-I 324 W/m 2,4 km/h
19.04.2020 10,8 C 55 % 1019,2 hPa 0,0 l/m 4,3 km/h NO 11,25 h 2,9 UV-I 416 W/m 18,5 km/h
20.04.2020 10,8 C 48 % 1020,6 hPa 0,0 l/m 3,9 km/h O 11,08 h 2,8 UV-I 429 W/m 18,9 km/h
21.04.2020 12,1 C 49 % 1019,9 hPa 0,0 l/m 6,0 km/h O 11,25 h 3,1 UV-I 431 W/m 17,7 km/h
22.04.2020 13,9 C 47 % 1020,9 hPa 0,0 l/m 3,2 km/h O 11,25 h 3,2 UV-I 436 W/m 14,5 km/h
23.04.2020 12,7 C 55 % 1018,3 hPa 0,0 l/m 1,3 km/h O-SO 11,08 h 3,1 UV-I 435 W/m 4,0 km/h
24.04.2020 12,9 C 55 % 1010,2 hPa 0,0 l/m 3,4 km/h N-NW 10,33 h 2,8 UV-I 402 W/m 6,4 km/h
25.04.2020 9,5 C 65 % 1011,7 hPa 0,0 l/m 1,4 km/h N-NW 5,58 h 2,5 UV-I 339 W/m 4,4 km/h
26.04.2020 10,1 C 66 % 1010,2 hPa 0,0 l/m 0,4 km/h N-NW 11,75 h 2,8 UV-I 439 W/m 3,6 km/h
27.04.2020 13,0 C 61 % 1006,5 hPa 0,0 l/m 0,6 km/h N 11,83 h 2,8 UV-I 429 W/m 4,0 km/h
28.04.2020 11,6 C 91 % 1003,1 hPa 7,0 l/m 0,1 km/h O-SO 3,58 h 1,4 UV-I 183 W/m 2,4 km/h
29.04.2020 10,2 C 93 % 1004,3 hPa 4,8 l/m 3,1 km/h S-SW 2,67 h 1,7 UV-I 197 W/m 10,1 km/h
30.04.2020 10,4 C 85 % 1000,5 hPa 12,6 l/m 8,9 km/h S-SO 4,67 h 2,5 UV-I 313 W/m 21,7 km/h
01.05.2020 7,9 C 87 % 1000,3 hPa 3,0 l/m 5,1 km/h S 3,75 h 2,1 UV-I 260 W/m 9,3 km/h
02.05.2020 7,9 C 91 % 1008,5 hPa 8,0 l/m 1,8 km/h N 1,67 h 1,8 UV-I 171 W/m 7,3 km/h
03.05.2020 10,6 C 80 % 1016,7 hPa 0,0 l/m 1,4 km/h N 2,92 h 1,6 UV-I 233 W/m 5,6 km/h
04.05.2020 9,4 C 80 % 1017,5 hPa 2,4 l/m 0,5 km/h N 2,42 h 1,6 UV-I 191 W/m 3,2 km/h
05.05.2020 7,3 C 67 % 1020,8 hPa 0,0 l/m 2,1 km/h N-NO 9,42 h 2,7 UV-I 433 W/m 5,6 km/h
06.05.2020 10,0 C 64 % 1024,1 hPa 0,0 l/m 0,1 km/h N-NW 12,00 h 3,1 UV-I 453 W/m 2,4 km/h
07.05.2020 11,4 C 57 % 1022,3 hPa 0,0 l/m 0,1 km/h N 12,50 h 3,4 UV-I 462 W/m 2,0 km/h
08.05.2020 14,3 C 55 % 1017,2 hPa 0,0 l/m 1,4 km/h N 10,25 h 3,1 UV-I 404 W/m 4,0 km/h
09.05.2020 15,4 C 57 % 1011,6 hPa 0,0 l/m 0,4 km/h SO 10,67 h 2,6 UV-I 361 W/m 2,0 km/h
10.05.2020 13,1 C 81 % 1004,8 hPa 0,0 l/m 8,3 km/h N-NW 0,83 h 1,5 UV-I 154 W/m 13,7 km/h
11.05.2020 7,1 C 58 % 1010,9 hPa 0,0 l/m 13,0 km/h N 2,25 h 1,8 UV-I 199 W/m 24,5 km/h
12.05.2020 5,9 C 69 % 1016,3 hPa 0,0 l/m 0,7 km/h N 3,25 h 2,0 UV-I 230 W/m 4,4 km/h
13.05.2020 7,4 C 75 % 1012,5 hPa 0,0 l/m 2,1 km/h N 5,92 h 2,7 UV-I 300 W/m 10,9 km/h
14.05.2020 8,1 C 65 % 1018,3 hPa 0,2 l/m 2,6 km/h N-NO 6,50 h 2,7 UV-I 350 W/m 5,6 km/h
15.05.2020 10,3 C 61 % 1020,5 hPa 0,0 l/m 3,1 km/h N-NW 7,75 h 3,1 UV-I 384 W/m 8,4 km/h
16.05.2020 11,1 C 66 % 1020,8 hPa 0,0 l/m 1,5 km/h N 9,58 h 2,8 UV-I 365 W/m 3,6 km/h
17.05.2020 12,4 C 63 % 1022,3 hPa 0,0 l/m 0,7 km/h N 8,42 h 3,2 UV-I 405 W/m 4,8 km/h
18.05.2020 16,4 C 62 % 1020,9 hPa 0,0 l/m 1,2 km/h N 11,08 h 3,4 UV-I 434 W/m 6,0 km/h
19.05.2020 16,2 C 69 % 1020,2 hPa 0,0 l/m 1,3 km/h N 5,08 h 3,1 UV-I 326 W/m 3,6 km/h
20.05.2020 14,2 C 80 % 1021,7 hPa 0,6 l/m 0,0 km/h N-NO 0,25 h 1,9 UV-I 155 W/m 0,0 km/h
21.05.2020 17,9 C 63 % 1021,0 hPa 0,0 l/m 1,9 km/h SO 12,92 h 3,8 UV-I 455 W/m 8,4 km/h
22.05.2020 17,1 C 84 % 1017,0 hPa 14,0 l/m 2,8 km/h S-SO 1,42 h 1,9 UV-I 185 W/m 6,0 km/h
23.05.2020 13,1 C 68 % 1021,0 hPa 0,0 l/m 3,3 km/h S-SW 2,92 h 2,2 UV-I 228 W/m 9,3 km/h
24.05.2020 11,4 C 87 % 1026,6 hPa 5,6 l/m 6,6 km/h N 0,33 h 1,1 UV-I 102 W/m 20,5 km/h
25.05.2020 13,9 C 73 % 1031,1 hPa 0,4 l/m 6,1 km/h N-NW 5,42 h 3,0 UV-I 335 W/m 13,7 km/h
26.05.2020 13,4 C 75 % 1034,2 hPa 0,0 l/m 0,3 km/h N-NO 6,75 h 2,6 UV-I 296 W/m 1,6 km/h
27.05.2020 16,2 C 70 % 1031,1 hPa 0,0 l/m 8,4 km/h N 8,83 h 3,4 UV-I 387 W/m 16,1 km/h
28.05.2020 14,5 C 59 % 1030,1 hPa 0,0 l/m 0,8 km/h N 13,00 h 3,5 UV-I 476 W/m 5,2 km/h
29.05.2020 15,1 C 60 % 1026,0 hPa 0,0 l/m 0,0 km/h NO 11,25 h 3,7 UV-I 447 W/m 0,4 km/h
30.05.2020 15,8 C 55 % 1023,0 hPa 0,0 l/m 0,8 km/h N-NO 10,42 h 3,7 UV-I 446 W/m 4,0 km/h
31.05.2020 14,7 C 64 % 1022,1 hPa 0,0 l/m 0,8 km/h N-NO 9,83 h 3,2 UV-I 400 W/m 6,0 km/h
01.06.2020 18,1 C 55 % 1020,9 hPa 0,0 l/m 0,5 km/h NO 12,92 h 3,9 UV-I 476 W/m 4,0 km/h
02.06.2020 19,6 C 57 % 1014,3 hPa 0,0 l/m 0,4 km/h SO 11,75 h 3,6 UV-I 433 W/m 3,6 km/h
03.06.2020 19,5 C 64 % 1001,8 hPa 1,0 l/m 0,4 km/h S 5,75 h 2,7 UV-I 297 W/m 1,6 km/h
04.06.2020 12,9 C 93 % 993,7 hPa 11,4 l/m 0,6 km/h N 0,00 h 1,3 UV-I 96 W/m 12,1 km/h
05.06.2020 9,3 C 88 % 994,4 hPa 9,8 l/m 12,8 km/h S 2,92 h 1,9 UV-I 213 W/m 24,9 km/h
06.06.2020 12,3 C 70 % 1000,5 hPa 0,6 l/m 6,9 km/h S 5,75 h 2,7 UV-I 330 W/m 11,6 km/h
07.06.2020 13,9 C 66 % 1007,6 hPa 0,0 l/m 6,5 km/h S 5,67 h 2,4 UV-I 282 W/m 11,3 km/h
08.06.2020 13,9 C 78 % 1013,5 hPa 0,0 l/m 0,4 km/h S 4,25 h 2,6 UV-I 273 W/m 2,8 km/h
09.06.2020 14,8 C 81 % 1015,8 hPa 2,0 l/m 1,9 km/h N-NO 4,50 h 2,5 UV-I 269 W/m 11,7 km/h
10.06.2020 15,3 C 86 % 1013,3 hPa 3,0 l/m 0,4 km/h NW 1,17 h 1,9 UV-I 180 W/m 2,0 km/h
11.06.2020 16,2 C 82 % 1009,7 hPa 2,8 l/m 0,4 km/h NO 2,75 h 2,9 UV-I 242 W/m 2,4 km/h
12.06.2020 20,8 C 74 % 1007,4 hPa 0,0 l/m 2,9 km/h SO 9,58 h 3,7 UV-I 420 W/m 8,5 km/h
13.06.2020 20,5 C 81 % 1009,1 hPa 2,4 l/m 0,1 km/h N-NO 7,58 h 3,7 UV-I 329 W/m 2,4 km/h
14.06.2020 18,0 C 94 % 1010,9 hPa 28,4 l/m 0,0 km/h N 0,67 h 1,5 UV-I 138 W/m 0,0 km/h
15.06.2020 15,6 C 93 % 1015,2 hPa 4,8 l/m 0,5 km/h NW 0,00 h 1,3 UV-I 108 W/m 4,4 km/h
16.06.2020 16,8 C 87 % 1013,8 hPa 0,0 l/m 0,0 km/h S-SW 0,33 h 1,8 UV-I 159 W/m 0,0 km/h
17.06.2020 19,1 C 86 % 1009,9 hPa 10,4 l/m 4,6 km/h SO 5,17 h 2,3 UV-I 265 W/m 7,7 km/h
18.06.2020 15,9 C 94 % 1011,0 hPa 7,0 l/m 0,3 km/h N 1,25 h 1,4 UV-I 130 W/m 2,0 km/h
19.06.2020 19,3 C 72 % 1014,3 hPa 0,2 l/m 1,1 km/h N 11,08 h 3,5 UV-I 426 W/m 3,6 km/h
20.06.2020 18,5 C 70 % 1018,8 hPa 0,0 l/m 3,1 km/h NW 10,67 h 3,5 UV-I 418 W/m 8,1 km/h
21.06.2020 19,1 C 70 % 1018,5 hPa 0,0 l/m 0,2 km/h N-NW 12,17 h 3,7 UV-I 461 W/m 2,8 km/h
22.06.2020 19,0 C 71 % 1022,9 hPa 0,2 l/m 0,6 km/h N-NW 4,42 h 3,2 UV-I 273 W/m 4,0 km/h
23.06.2020 20,2 C 65 % 1024,0 hPa 0,0 l/m 0,8 km/h N 12,50 h 4,1 UV-I 462 W/m 4,0 km/h
24.06.2020 20,5 C 62 % 1022,2 hPa 0,0 l/m 0,9 km/h NO 11,83 h 4,0 UV-I 458 W/m 5,2 km/h
25.06.2020 20,9 C 69 % 1017,7 hPa 0,0 l/m 3,3 km/h SO 10,08 h 3,2 UV-I 374 W/m 10,9 km/h
26.06.2020 22,5 C 61 % 1011,5 hPa 0,0 l/m 4,2 km/h SO 12,25 h 3,9 UV-I 445 W/m 11,3 km/h
27.06.2020 23,0 C 69 % 1008,7 hPa 0,0 l/m 3,8 km/h S-SW 6,75 h 3,8 UV-I 344 W/m 8,4 km/h
28.06.2020 16,5 C 83 % 1011,5 hPa 1,0 l/m 0,0 km/h S 1,50 h 1,5 UV-I 145 W/m 0,0 km/h
29.06.2020 16,5 C 66 % 1010,1 hPa 4,0 l/m 0,9 km/h N 6,92 h 2,8 UV-I 334 W/m 10,0 km/h
30.06.2020 16,9 C 65 % 1008,1 hPa 0,0 l/m 6,2 km/h S-SW 3,25 h 3,2 UV-I 293 W/m 14,5 km/h
01.07.2020 16,9 C 94 % 1006,1 hPa 15,2 l/m 3,7 km/h S 0,25 h 1,9 UV-I 132 W/m 7,6 km/h
02.07.2020 15,8 C 86 % 1010,5 hPa 1,8 l/m 0,0 km/h S-SW 3,83 h 2,6 UV-I 267 W/m 0,4 km/h
03.07.2020 15,9 C 82 % 1015,7 hPa 0,2 l/m 1,8 km/h S-SW 4,50 h 2,8 UV-I 275 W/m 8,4 km/h
04.07.2020 18,3 C 76 % 1013,1 hPa 0,2 l/m 10,0 km/h S 2,50 h 2,6 UV-I 212 W/m 20,1 km/h
05.07.2020 19,8 C 80 % 1008,8 hPa 0,2 l/m 10,2 km/h S-SW 0,67 h 1,6 UV-I 135 W/m 24,1 km/h
06.07.2020 12,8 C 83 % 1014,5 hPa 1,2 l/m 5,8 km/h N 3,00 h 2,2 UV-I 238 W/m 20,9 km/h
07.07.2020 14,9 C 76 % 1017,7 hPa 0,4 l/m 1,5 km/h N 4,17 h 3,4 UV-I 301 W/m 4,4 km/h
08.07.2020 13,7 C 90 % 1015,0 hPa 2,6 l/m 0,0 km/h S 0,83 h 1,4 UV-I 120 W/m 0,0 km/h
09.07.2020 17,5 C 90 % 1011,3 hPa 4,8 l/m 0,7 km/h S 0,50 h 1,9 UV-I 136 W/m 2,8 km/h
10.07.2020 14,2 C 90 % 1012,3 hPa 3,8 l/m 2,6 km/h NW 0,58 h 1,6 UV-I 139 W/m 6,4 km/h
11.07.2020 14,1 C 79 % 1023,6 hPa 0,0 l/m 0,0 km/h NW 8,33 h 3,0 UV-I 373 W/m 0,4 km/h
12.07.2020 15,2 C 75 % 1026,3 hPa 0,0 l/m 1,0 km/h N 6,25 h 3,0 UV-I 322 W/m 2,8 km/h
13.07.2020 18,4 C 65 % 1020,5 hPa 0,0 l/m 0,2 km/h S-SO 12,50 h 3,8 UV-I 469 W/m 2,0 km/h
14.07.2020 16,6 C 80 % 1013,0 hPa 2,8 l/m 0,0 km/h N-NW 6,50 h 3,1 UV-I 321 W/m 0,4 km/h
15.07.2020 15,6 C 84 % 1012,8 hPa 2,0 l/m 0,1 km/h NW 2,25 h 2,3 UV-I 202 W/m 2,0 km/h
16.07.2020 14,9 C 89 % 1016,3 hPa 3,0 l/m 0,0 km/h N-NW 3,25 h 1,8 UV-I 178 W/m 0,0 km/h
17.07.2020 17,5 C 77 % 1019,4 hPa 0,0 l/m 0,2 km/h N-NO 5,58 h 3,1 UV-I 325 W/m 2,0 km/h
18.07.2020 18,2 C 75 % 1017,7 hPa 0,0 l/m 0,1 km/h SO 5,50 h 2,9 UV-I 319 W/m 1,6 km/h
19.07.2020 20,8 C 68 % 1014,1 hPa 0,0 l/m 0,8 km/h S 7,08 h 2,6 UV-I 308 W/m 3,6 km/h
20.07.2020 16,2 C 78 % 1017,8 hPa 0,4 l/m 2,1 km/h NW 2,33 h 1,7 UV-I 177 W/m 7,3 km/h
21.07.2020 15,5 C 70 % 1021,9 hPa 0,0 l/m 0,3 km/h N-NW 9,08 h 3,2 UV-I 401 W/m 3,2 km/h
22.07.2020 16,0 C 68 % 1020,7 hPa 0,0 l/m 3,1 km/h N 9,75 h 3,6 UV-I 408 W/m 5,6 km/h
23.07.2020 17,6 C 66 % 1014,8 hPa 0,0 l/m 0,0 km/h NW 12,83 h 3,9 UV-I 473 W/m 0,0 km/h
24.07.2020 19,3 C 69 % 1010,5 hPa 0,0 l/m 1,8 km/h NW 6,00 h 3,2 UV-I 323 W/m 6,8 km/h
25.07.2020 19,8 C 77 % 1010,1 hPa 0,0 l/m 2,3 km/h S-SW 3,08 h 2,8 UV-I 252 W/m 6,4 km/h
26.07.2020 17,7 C 83 % 1010,9 hPa 21,4 l/m 1,0 km/h N 5,50 h 3,3 UV-I 352 W/m 4,4 km/h
27.07.2020 18,0 C 84 % 1011,5 hPa 0,6 l/m 0,1 km/h SO 2,92 h 2,0 UV-I 215 W/m 2,4 km/h
28.07.2020 18,9 C 67 % 1010,9 hPa 0,0 l/m 1,9 km/h N 3,25 h 2,8 UV-I 278 W/m 9,6 km/h
29.07.2020 16,3 C 68 % 1018,2 hPa 0,0 l/m 3,1 km/h N 7,67 h 2,9 UV-I 360 W/m 10,5 km/h
30.07.2020 17,9 C 66 % 1019,7 hPa 0,0 l/m 0,6 km/h N 12,58 h 3,9 UV-I 456 W/m 2,8 km/h
31.07.2020 22,6 C 59 % 1016,1 hPa 0,0 l/m 1,0 km/h SO 12,58 h 4,1 UV-I 461 W/m 3,6 km/h
01.08.2020 21,3 C 80 % 1012,7 hPa 0,0 l/m 0,0 km/h S 3,92 h 1,5 UV-I 182 W/m 0,0 km/h
02.08.2020 18,9 C 81 % 1012,8 hPa 7,8 l/m 1,3 km/h NW 4,42 h 2,8 UV-I 271 W/m 5,6 km/h
03.08.2020 17,0 C 70 % 1011,6 hPa 0,0 l/m 1,5 km/h N 10,67 h 3,1 UV-I 398 W/m 9,3 km/h
04.08.2020 16,3 C 71 % 1015,2 hPa 0,0 l/m 1,4 km/h N-NW 9,92 h 3,0 UV-I 423 W/m 4,8 km/h
05.08.2020 19,7 C 62 % 1016,3 hPa 0,0 l/m 0,6 km/h S 12,00 h 3,5 UV-I 443 W/m 3,6 km/h
06.08.2020 21,7 C 56 % 1019,2 hPa 0,0 l/m 0,3 km/h S-SO 12,25 h 3,5 UV-I 453 W/m 2,8 km/h
07.08.2020 23,7 C 54 % 1019,2 hPa 0,0 l/m 1,1 km/h SO 12,25 h 3,4 UV-I 447 W/m 4,0 km/h
08.08.2020 25,7 C 56 % 1017,9 hPa 0,0 l/m 0,1 km/h NW 12,17 h 3,4 UV-I 443 W/m 1,2 km/h
09.08.2020 23,7 C 74 % 1015,9 hPa 4,0 l/m 2,2 km/h SO 6,92 h 3,3 UV-I 312 W/m 5,2 km/h
10.08.2020 23,3 C 76 % 1015,0 hPa 13,2 l/m 3,5 km/h SO 9,92 h 3,4 UV-I 396 W/m 7,6 km/h
11.08.2020 24,5 C 68 % 1015,4 hPa 0,0 l/m 2,4 km/h SO 9,58 h 3,3 UV-I 398 W/m 7,6 km/h
12.08.2020 22,3 C 76 % 1014,0 hPa 7,6 l/m 3,1 km/h SO 4,42 h 2,4 UV-I 220 W/m 8,1 km/h
13.08.2020 22,4 C 81 % 1011,3 hPa 3,0 l/m 4,0 km/h S-SO 3,00 h 2,5 UV-I 253 W/m 5,6 km/h
14.08.2020 21,6 C 81 % 1012,2 hPa 1,6 l/m 2,0 km/h S 1,83 h 2,0 UV-I 217 W/m 8,5 km/h
15.08.2020 20,8 C 88 % 1013,5 hPa 0,4 l/m 0,4 km/h NW 2,75 h 2,0 UV-I 220 W/m 3,2 km/h
16.08.2020 22,9 C 77 % 1009,9 hPa 0,0 l/m 1,8 km/h SO 8,42 h 3,0 UV-I 368 W/m 6,9 km/h
17.08.2020 19,2 C 88 % 1008,4 hPa 0,2 l/m 0,5 km/h N 0,75 h 1,6 UV-I 158 W/m 2,8 km/h
18.08.2020 17,8 C 80 % 1009,6 hPa 1,6 l/m 0,3 km/h NW 5,42 h 2,5 UV-I 299 W/m 2,8 km/h
19.08.2020 19,0 C 73 % 1008,7 hPa 0,0 l/m 0,3 km/h S-SO 10,17 h 3,3 UV-I 408 W/m 2,0 km/h
20.08.2020 22,7 C 77 % 1008,4 hPa 0,0 l/m 0,5 km/h SO 3,33 h 2,5 UV-I 228 W/m 2,8 km/h
21.08.2020 24,3 C 69 % 1008,7 hPa 0,0 l/m 3,1 km/h S-SO 1,92 h 2,0 UV-I 193 W/m 7,6 km/h
22.08.2020 20,2 C 69 % 1013,4 hPa 0,0 l/m 1,8 km/h N 5,83 h 2,6 UV-I 335 W/m 5,2 km/h
23.08.2020 16,1 C 81 % 1014,3 hPa 0,8 l/m 2,5 km/h S 2,25 h 2,2 UV-I 227 W/m 9,3 km/h
24.08.2020 15,9 C 79 % 1013,6 hPa 1,2 l/m 2,1 km/h S-SW 2,42 h 1,8 UV-I 202 W/m 4,8 km/h
25.08.2020 15,8 C 83 % 1007,7 hPa 1,2 l/m 8,3 km/h S-SO 3,75 h 2,3 UV-I 205 W/m 14,5 km/h
26.08.2020 15,2 C 86 % 1007,6 hPa 2,4 l/m 15,0 km/h S 0,00 h 1,0 UV-I 75 W/m 35,4 km/h
27.08.2020 15,5 C 78 % 1012,7 hPa 0,2 l/m 0,0 km/h NW 3,50 h 2,0 UV-I 233 W/m 0,0 km/h
28.08.2020 15,6 C 82 % 1001,0 hPa 6,6 l/m 1,8 km/h S-SW 3,92 h 2,1 UV-I 253 W/m 6,0 km/h
29.08.2020 14,1 C 80 % 1003,9 hPa 0,2 l/m 3,1 km/h S-SW 4,83 h 2,2 UV-I 270 W/m 6,4 km/h
30.08.2020 15,7 C 79 % 1009,0 hPa 0,2 l/m 0,5 km/h N-NW 6,00 h 1,9 UV-I 243 W/m 2,4 km/h
31.08.2020 14,4 C 79 % 1016,9 hPa 0,0 l/m 0,1 km/h N-NW 1,92 h 1,9 UV-I 212 W/m 0,8 km/h
01.09.2020 13,2 C 87 % 1017,5 hPa 2,4 l/m 0,6 km/h N-NO 1,58 h 1,5 UV-I 174 W/m 2,8 km/h
02.09.2020 11,8 C 78 % 1018,1 hPa 0,2 l/m 0,4 km/h NW 8,67 h 2,4 UV-I 360 W/m 2,0 km/h
03.09.2020 13,5 C 90 % 1018,3 hPa 2,8 l/m 5,3 km/h S 0,67 h 1,5 UV-I 139 W/m 11,6 km/h
04.09.2020 17,5 C 93 % 1018,7 hPa 4,2 l/m 2,3 km/h S-SW 0,25 h 1,4 UV-I 102 W/m 6,0 km/h
05.09.2020 12,1 C 93 % 1016,8 hPa 9,8 l/m 1,1 km/h N 1,00 h 1,2 UV-I 96 W/m 3,6 km/h
06.09.2020 11,1 C 83 % 1019,2 hPa 0,2 l/m 0,5 km/h N 4,92 h 2,0 UV-I 256 W/m 3,2 km/h
07.09.2020 12,0 C 86 % 1023,5 hPa 0,0 l/m 0,0 km/h NW 5,08 h 2,2 UV-I 271 W/m 0,8 km/h
08.09.2020 16,1 C 84 % 1024,5 hPa 0,0 l/m 1,9 km/h S 2,50 h 2,1 UV-I 203 W/m 6,0 km/h
09.09.2020 17,4 C 89 % 1019,3 hPa 2,4 l/m 1,1 km/h N 1,92 h 1,9 UV-I 193 W/m 4,8 km/h
10.09.2020 12,3 C 83 % 1020,3 hPa 0,0 l/m 0,0 km/h NW 5,08 h 2,3 UV-I 284 W/m 0,0 km/h
11.09.2020 11,5 C 81 % 1016,9 hPa 0,2 l/m 0,7 km/h NW 10,00 h 2,2 UV-I 344 W/m 3,2 km/h
12.09.2020 13,9 C 83 % 1019,7 hPa 0,0 l/m 2,0 km/h N 9,75 h 2,2 UV-I 345 W/m 5,6 km/h
13.09.2020 15,6 C 81 % 1025,1 hPa 0,2 l/m 1,6 km/h S 9,17 h 2,4 UV-I 338 W/m 4,4 km/h
14.09.2020 19,5 C 73 % 1023,5 hPa 0,0 l/m 5,3 km/h S-SO 9,75 h 2,4 UV-I 351 W/m 7,3 km/h
15.09.2020 19,2 C 75 % 1018,7 hPa 0,0 l/m 1,0 km/h S-SW 8,50 h 2,1 UV-I 305 W/m 2,8 km/h
16.09.2020 18,7 C 76 % 1019,1 hPa 0,0 l/m 1,1 km/h N 6,33 h 1,9 UV-I 259 W/m 8,9 km/h
17.09.2020 12,9 C 68 % 1027,1 hPa 0,0 l/m 0,8 km/h N-NO 8,92 h 2,4 UV-I 342 W/m 2,4 km/h
18.09.2020 13,1 C 60 % 1024,7 hPa 0,0 l/m 0,9 km/h O-SO 9,67 h 2,6 UV-I 357 W/m 3,6 km/h
19.09.2020 15,8 C 48 % 1018,5 hPa 0,0 l/m 2,4 km/h SO 9,08 h 2,4 UV-I 356 W/m 7,2 km/h
20.09.2020 15,9 C 56 % 1016,8 hPa 0,0 l/m 0,3 km/h SO 9,50 h 2,4 UV-I 347 W/m 3,2 km/h
21.09.2020 14,7 C 71 % 1014,5 hPa 0,0 l/m 0,4 km/h SO 9,25 h 2,3 UV-I 331 W/m 2,0 km/h
22.09.2020 15,3 C 73 % 1008,3 hPa 0,0 l/m 0,3 km/h NW 9,17 h 2,1 UV-I 320 W/m 2,8 km/h
23.09.2020 15,7 C 71 % 1003,4 hPa 0,0 l/m 1,3 km/h S 7,67 h 2,0 UV-I 298 W/m 4,0 km/h
24.09.2020 14,1 C 74 % 1001,0 hPa 2,4 l/m 8,6 km/h S 5,42 h 1,7 UV-I 255 W/m 18,9 km/h
25.09.2020 10,5 C 78 % 996,0 hPa 1,2 l/m 3,0 km/h S 2,67 h 1,5 UV-I 195 W/m 6,0 km/h
26.09.2020 8,6 C 89 % 996,2 hPa 19,6 l/m 0,9 km/h S-SO 0,17 h 1,0 UV-I 113 W/m 2,8 km/h
Min-Datum 30.03.20 19.09.20 06.03.20 140 Tage 01.01.20 - - - - 01.01.20
Min-Zeit 05:55 17:20 04:00 - 00:00 - - - - 00:00
Minimum -6,8 C 15 % 985,2 hPa - 0,0 km/h - - - - 0,0 km/h
Max-Datum 08.08.20 05.01.20 20.01.20 23.02.20 09.02.20 - 28.05.20 27.06.20 10.07.20 09.02.20
Max-Zeit 15:25 08:50 10:50 04:25 23:20 - 19:55 13:50 13:35 18:50
Maximum 35,0 C 98 % 1047,5 hPa 32,0 l/m 51,6 km/h
S
- 12,92 h 8,8 UV-I 1192 W/m 80,5 km/h
S
Durchschnitt 11,7 C 77 % 1015,7 hPa #614,4 l/m 4,6 km/h N #1370:45 h 2,1 UV-I 245 W/m 10,4 km/h

Durchschnitt Minimum Temp.6,7 C
Durchschnitt Maximum Temp.16,5 C